sensor_id;sensor_type;location;lat;lon;timestamp;P1;durP1;ratioP1;P2;durP2;ratioP2
8791;SDS011;4432;50.890;4.744;2023-04-25T00:01:19;7.53;;;3.00;;
8791;SDS011;4432;50.890;4.744;2023-04-25T00:03:46;10.53;;;2.50;;
8791;SDS011;4432;50.890;4.744;2023-04-25T00:06:13;8.87;;;2.80;;
8791;SDS011;4432;50.890;4.744;2023-04-25T00:08:38;9.47;;;2.97;;
8791;SDS011;4432;50.890;4.744;2023-04-25T00:11:04;5.87;;;3.00;;
8791;SDS011;4432;50.890;4.744;2023-04-25T00:13:31;8.17;;;2.50;;
8791;SDS011;4432;50.890;4.744;2023-04-25T00:15:57;3.20;;;2.20;;
8791;SDS011;4432;50.890;4.744;2023-04-25T00:18:23;4.90;;;3.00;;
8791;SDS011;4432;50.890;4.744;2023-04-25T00:20:49;11.47;;;2.90;;
8791;SDS011;4432;50.890;4.744;2023-04-25T00:23:15;6.43;;;2.87;;
8791;SDS011;4432;50.890;4.744;2023-04-25T00:25:45;8.33;;;2.90;;
8791;SDS011;4432;50.890;4.744;2023-04-25T00:28:11;8.70;;;3.17;;
8791;SDS011;4432;50.890;4.744;2023-04-25T00:30:38;8.53;;;2.70;;
8791;SDS011;4432;50.890;4.744;2023-04-25T00:33:04;9.10;;;2.47;;
8791;SDS011;4432;50.890;4.744;2023-04-25T00:35:30;9.00;;;3.00;;
8791;SDS011;4432;50.890;4.744;2023-04-25T00:37:56;5.57;;;3.13;;
8791;SDS011;4432;50.890;4.744;2023-04-25T00:40:22;10.77;;;2.73;;
8791;SDS011;4432;50.890;4.744;2023-04-25T00:42:48;4.67;;;2.57;;
8791;SDS011;4432;50.890;4.744;2023-04-25T00:45:16;11.40;;;3.03;;
8791;SDS011;4432;50.890;4.744;2023-04-25T00:47:43;9.23;;;3.40;;
8791;SDS011;4432;50.890;4.744;2023-04-25T00:50:09;5.43;;;2.67;;
8791;SDS011;4432;50.890;4.744;2023-04-25T00:52:38;10.60;;;3.03;;
8791;SDS011;4432;50.890;4.744;2023-04-25T00:55:06;12.03;;;3.10;;
8791;SDS011;4432;50.890;4.744;2023-04-25T00:57:32;6.97;;;2.80;;
8791;SDS011;4432;50.890;4.744;2023-04-25T00:59:58;4.23;;;2.80;;
8791;SDS011;4432;50.890;4.744;2023-04-25T01:02:24;7.20;;;2.70;;
8791;SDS011;4432;50.890;4.744;2023-04-25T01:04:52;9.70;;;2.80;;
8791;SDS011;4432;50.890;4.744;2023-04-25T01:07:18;10.37;;;3.00;;
8791;SDS011;4432;50.890;4.744;2023-04-25T01:09:44;5.37;;;2.90;;
8791;SDS011;4432;50.890;4.744;2023-04-25T01:12:11;4.47;;;2.37;;
8791;SDS011;4432;50.890;4.744;2023-04-25T01:14:37;8.40;;;3.50;;
8791;SDS011;4432;50.890;4.744;2023-04-25T01:17:03;8.20;;;3.27;;
8791;SDS011;4432;50.890;4.744;2023-04-25T01:19:29;7.90;;;3.20;;
8791;SDS011;4432;50.890;4.744;2023-04-25T01:21:55;11.90;;;3.37;;
8791;SDS011;4432;50.890;4.744;2023-04-25T01:24:21;4.87;;;3.03;;
8791;SDS011;4432;50.890;4.744;2023-04-25T01:26:47;8.53;;;3.10;;
8791;SDS011;4432;50.890;4.744;2023-04-25T01:29:18;7.67;;;2.93;;
8791;SDS011;4432;50.890;4.744;2023-04-25T01:31:45;7.50;;;3.27;;
8791;SDS011;4432;50.890;4.744;2023-04-25T01:34:12;5.93;;;2.93;;
8791;SDS011;4432;50.890;4.744;2023-04-25T01:36:38;5.00;;;2.53;;
8791;SDS011;4432;50.890;4.744;2023-04-25T01:39:04;8.27;;;2.70;;
8791;SDS011;4432;50.890;4.744;2023-04-25T01:41:30;9.47;;;2.87;;
8791;SDS011;4432;50.890;4.744;2023-04-25T01:43:56;10.03;;;3.27;;
8791;SDS011;4432;50.890;4.744;2023-04-25T01:46:22;9.03;;;3.63;;
8791;SDS011;4432;50.890;4.744;2023-04-25T01:48:48;5.60;;;3.53;;
8791;SDS011;4432;50.890;4.744;2023-04-25T01:51:14;5.57;;;3.53;;
8791;SDS011;4432;50.890;4.744;2023-04-25T01:53:40;14.60;;;3.37;;
8791;SDS011;4432;50.890;4.744;2023-04-25T01:56:07;11.53;;;3.53;;
8791;SDS011;4432;50.890;4.744;2023-04-25T01:58:33;5.10;;;3.13;;
8791;SDS011;4432;50.890;4.744;2023-04-25T02:00:59;7.53;;;3.10;;
8791;SDS011;4432;50.890;4.744;2023-04-25T02:03:24;11.73;;;3.63;;
8791;SDS011;4432;50.890;4.744;2023-04-25T02:05:50;13.10;;;3.50;;
8791;SDS011;4432;50.890;4.744;2023-04-25T02:08:16;4.07;;;2.93;;
8791;SDS011;4432;50.890;4.744;2023-04-25T02:10:43;10.23;;;2.70;;
8791;SDS011;4432;50.890;4.744;2023-04-25T02:13:09;10.77;;;3.33;;
8791;SDS011;4432;50.890;4.744;2023-04-25T02:15:35;8.23;;;3.20;;
8791;SDS011;4432;50.890;4.744;2023-04-25T02:18:01;10.40;;;3.07;;
8791;SDS011;4432;50.890;4.744;2023-04-25T02:20:27;15.27;;;3.60;;
8791;SDS011;4432;50.890;4.744;2023-04-25T02:22:55;10.60;;;2.80;;
8791;SDS011;4432;50.890;4.744;2023-04-25T02:25:21;7.50;;;3.13;;
8791;SDS011;4432;50.890;4.744;2023-04-25T02:27:47;7.97;;;2.83;;
8791;SDS011;4432;50.890;4.744;2023-04-25T02:30:13;9.93;;;3.27;;
8791;SDS011;4432;50.890;4.744;2023-04-25T02:32:39;9.77;;;3.47;;
8791;SDS011;4432;50.890;4.744;2023-04-25T02:35:06;4.93;;;2.63;;
8791;SDS011;4432;50.890;4.744;2023-04-25T02:37:32;5.93;;;3.13;;
8791;SDS011;4432;50.890;4.744;2023-04-25T02:39:59;7.93;;;2.83;;
8791;SDS011;4432;50.890;4.744;2023-04-25T02:42:26;8.40;;;3.00;;
8791;SDS011;4432;50.890;4.744;2023-04-25T02:44:52;6.90;;;2.50;;
8791;SDS011;4432;50.890;4.744;2023-04-25T02:47:18;6.73;;;3.13;;
8791;SDS011;4432;50.890;4.744;2023-04-25T02:49:44;10.37;;;2.87;;
8791;SDS011;4432;50.890;4.744;2023-04-25T02:52:10;9.27;;;2.73;;
8791;SDS011;4432;50.890;4.744;2023-04-25T02:54:36;5.73;;;2.67;;
8791;SDS011;4432;50.890;4.744;2023-04-25T02:57:02;10.17;;;2.97;;
8791;SDS011;4432;50.890;4.744;2023-04-25T02:59:28;6.87;;;2.33;;
8791;SDS011;4432;50.890;4.744;2023-04-25T03:01:54;7.67;;;2.60;;
8791;SDS011;4432;50.890;4.744;2023-04-25T03:04:20;4.80;;;2.73;;
8791;SDS011;4432;50.890;4.744;2023-04-25T03:06:48;7.57;;;2.93;;
8791;SDS011;4432;50.890;4.744;2023-04-25T03:09:15;5.13;;;2.53;;
8791;SDS011;4432;50.890;4.744;2023-04-25T03:11:40;10.87;;;2.70;;
8791;SDS011;4432;50.890;4.744;2023-04-25T03:14:06;10.07;;;3.10;;
8791;SDS011;4432;50.890;4.744;2023-04-25T03:16:32;4.87;;;2.23;;
8791;SDS011;4432;50.890;4.744;2023-04-25T03:18:58;8.40;;;2.83;;
8791;SDS011;4432;50.890;4.744;2023-04-25T03:21:24;6.10;;;2.40;;
8791;SDS011;4432;50.890;4.744;2023-04-25T03:23:51;11.03;;;2.77;;
8791;SDS011;4432;50.890;4.744;2023-04-25T03:26:17;10.33;;;3.17;;
8791;SDS011;4432;50.890;4.744;2023-04-25T03:28:43;6.30;;;2.40;;
8791;SDS011;4432;50.890;4.744;2023-04-25T03:31:09;11.63;;;2.93;;
8791;SDS011;4432;50.890;4.744;2023-04-25T03:33:34;8.40;;;3.17;;
8791;SDS011;4432;50.890;4.744;2023-04-25T03:36:00;5.27;;;2.40;;
8791;SDS011;4432;50.890;4.744;2023-04-25T03:38:26;8.87;;;2.97;;
8791;SDS011;4432;50.890;4.744;2023-04-25T03:40:52;4.57;;;2.20;;
8791;SDS011;4432;50.890;4.744;2023-04-25T03:43:18;7.20;;;2.67;;
8791;SDS011;4432;50.890;4.744;2023-04-25T03:45:43;10.73;;;2.23;;
8791;SDS011;4432;50.890;4.744;2023-04-25T03:48:10;13.17;;;3.03;;
8791;SDS011;4432;50.890;4.744;2023-04-25T03:50:36;9.73;;;2.97;;
8791;SDS011;4432;50.890;4.744;2023-04-25T03:53:02;6.90;;;2.27;;
8791;SDS011;4432;50.890;4.744;2023-04-25T03:55:28;9.00;;;2.60;;
8791;SDS011;4432;50.890;4.744;2023-04-25T03:57:54;11.57;;;2.50;;
8791;SDS011;4432;50.890;4.744;2023-04-25T04:00:19;8.27;;;2.40;;
8791;SDS011;4432;50.890;4.744;2023-04-25T04:02:45;9.37;;;2.40;;
8791;SDS011;4432;50.890;4.744;2023-04-25T04:05:11;4.73;;;2.00;;
8791;SDS011;4432;50.890;4.744;2023-04-25T04:07:37;8.27;;;2.30;;
8791;SDS011;4432;50.890;4.744;2023-04-25T04:10:11;4.80;;;1.80;;
8791;SDS011;4432;50.890;4.744;2023-04-25T04:12:37;6.17;;;2.33;;
8791;SDS011;4432;50.890;4.744;2023-04-25T04:15:03;4.83;;;2.40;;
8791;SDS011;4432;50.890;4.744;2023-04-25T04:17:31;11.43;;;2.20;;
8791;SDS011;4432;50.890;4.744;2023-04-25T04:19:57;8.50;;;2.63;;
8791;SDS011;4432;50.890;4.744;2023-04-25T04:22:23;8.27;;;2.67;;
8791;SDS011;4432;50.890;4.744;2023-04-25T04:24:49;12.50;;;2.53;;
8791;SDS011;4432;50.890;4.744;2023-04-25T04:27:17;7.47;;;2.63;;
8791;SDS011;4432;50.890;4.744;2023-04-25T04:29:44;12.60;;;2.50;;
8791;SDS011;4432;50.890;4.744;2023-04-25T04:32:11;6.97;;;2.10;;
8791;SDS011;4432;50.890;4.744;2023-04-25T04:34:37;8.13;;;2.63;;
8791;SDS011;4432;50.890;4.744;2023-04-25T04:37:04;6.33;;;2.50;;
8791;SDS011;4432;50.890;4.744;2023-04-25T04:39:32;5.10;;;2.23;;
8791;SDS011;4432;50.890;4.744;2023-04-25T04:41:58;9.83;;;2.43;;
8791;SDS011;4432;50.890;4.744;2023-04-25T04:44:26;6.30;;;2.40;;
8791;SDS011;4432;50.890;4.744;2023-04-25T04:46:53;8.73;;;2.30;;
8791;SDS011;4432;50.890;4.744;2023-04-25T04:49:20;8.17;;;2.70;;
8791;SDS011;4432;50.890;4.744;2023-04-25T04:51:46;6.77;;;2.70;;
8791;SDS011;4432;50.890;4.744;2023-04-25T04:54:12;5.97;;;2.77;;
8791;SDS011;4432;50.890;4.744;2023-04-25T04:56:38;7.37;;;2.17;;
8791;SDS011;4432;50.890;4.744;2023-04-25T04:59:04;8.33;;;2.20;;
8791;SDS011;4432;50.890;4.744;2023-04-25T05:01:30;8.70;;;2.60;;
8791;SDS011;4432;50.890;4.744;2023-04-25T05:03:56;6.67;;;2.20;;
8791;SDS011;4432;50.890;4.744;2023-04-25T05:06:26;7.83;;;2.33;;
8791;SDS011;4432;50.890;4.744;2023-04-25T05:08:53;9.80;;;2.90;;
8791;SDS011;4432;50.890;4.744;2023-04-25T05:11:19;5.63;;;2.50;;
8791;SDS011;4432;50.890;4.744;2023-04-25T05:13:46;6.80;;;2.50;;
8791;SDS011;4432;50.890;4.744;2023-04-25T05:16:12;5.87;;;2.83;;
8791;SDS011;4432;50.890;4.744;2023-04-25T05:18:38;6.87;;;2.77;;
8791;SDS011;4432;50.890;4.744;2023-04-25T05:21:04;8.33;;;2.67;;
8791;SDS011;4432;50.890;4.744;2023-04-25T05:23:30;6.07;;;3.17;;
8791;SDS011;4432;50.890;4.744;2023-04-25T05:25:57;6.77;;;2.93;;
8791;SDS011;4432;50.890;4.744;2023-04-25T05:28:23;8.73;;;2.63;;
8791;SDS011;4432;50.890;4.744;2023-04-25T05:30:49;13.43;;;3.13;;
8791;SDS011;4432;50.890;4.744;2023-04-25T05:33:15;7.90;;;3.13;;
8791;SDS011;4432;50.890;4.744;2023-04-25T05:35:41;8.57;;;3.33;;
8791;SDS011;4432;50.890;4.744;2023-04-25T05:38:07;10.93;;;3.53;;
8791;SDS011;4432;50.890;4.744;2023-04-25T05:40:33;10.23;;;3.17;;
8791;SDS011;4432;50.890;4.744;2023-04-25T05:42:59;9.77;;;3.10;;
8791;SDS011;4432;50.890;4.744;2023-04-25T05:45:24;4.47;;;2.40;;
8791;SDS011;4432;50.890;4.744;2023-04-25T05:47:50;13.17;;;2.97;;
8791;SDS011;4432;50.890;4.744;2023-04-25T05:50:16;6.47;;;2.70;;
8791;SDS011;4432;50.890;4.744;2023-04-25T05:52:42;7.30;;;2.97;;
8791;SDS011;4432;50.890;4.744;2023-04-25T05:55:07;12.93;;;3.20;;
8791;SDS011;4432;50.890;4.744;2023-04-25T05:57:33;8.97;;;3.80;;
8791;SDS011;4432;50.890;4.744;2023-04-25T06:00:00;12.33;;;3.20;;
8791;SDS011;4432;50.890;4.744;2023-04-25T06:02:25;7.03;;;2.70;;
8791;SDS011;4432;50.890;4.744;2023-04-25T06:04:51;13.67;;;3.63;;
8791;SDS011;4432;50.890;4.744;2023-04-25T06:07:18;6.27;;;2.70;;
8791;SDS011;4432;50.890;4.744;2023-04-25T06:09:45;11.63;;;3.37;;
8791;SDS011;4432;50.890;4.744;2023-04-25T06:12:11;7.93;;;3.43;;
8791;SDS011;4432;50.890;4.744;2023-04-25T06:14:36;7.03;;;2.90;;
8791;SDS011;4432;50.890;4.744;2023-04-25T06:17:03;7.07;;;3.13;;
8791;SDS011;4432;50.890;4.744;2023-04-25T06:19:33;7.60;;;2.87;;
8791;SDS011;4432;50.890;4.744;2023-04-25T06:22:02;5.43;;;2.70;;
8791;SDS011;4432;50.890;4.744;2023-04-25T06:24:28;10.43;;;3.60;;
8791;SDS011;4432;50.890;4.744;2023-04-25T06:26:54;6.93;;;3.43;;
8791;SDS011;4432;50.890;4.744;2023-04-25T06:29:20;7.03;;;3.07;;
8791;SDS011;4432;50.890;4.744;2023-04-25T06:31:46;15.33;;;3.87;;
8791;SDS011;4432;50.890;4.744;2023-04-25T06:34:12;12.97;;;3.37;;
8791;SDS011;4432;50.890;4.744;2023-04-25T06:36:37;12.60;;;3.17;;
8791;SDS011;4432;50.890;4.744;2023-04-25T06:39:03;12.37;;;3.87;;
8791;SDS011;4432;50.890;4.744;2023-04-25T06:41:29;7.77;;;3.30;;
8791;SDS011;4432;50.890;4.744;2023-04-25T06:43:55;10.27;;;3.27;;
8791;SDS011;4432;50.890;4.744;2023-04-25T06:46:21;12.97;;;3.83;;
8791;SDS011;4432;50.890;4.744;2023-04-25T06:48:47;13.23;;;3.43;;
8791;SDS011;4432;50.890;4.744;2023-04-25T06:51:12;7.00;;;3.20;;
8791;SDS011;4432;50.890;4.744;2023-04-25T06:53:38;12.43;;;3.43;;
8791;SDS011;4432;50.890;4.744;2023-04-25T06:56:05;14.17;;;3.40;;
8791;SDS011;4432;50.890;4.744;2023-04-25T06:58:31;6.83;;;2.90;;
8791;SDS011;4432;50.890;4.744;2023-04-25T07:00:57;8.33;;;3.10;;
8791;SDS011;4432;50.890;4.744;2023-04-25T07:03:23;6.97;;;3.10;;
8791;SDS011;4432;50.890;4.744;2023-04-25T07:05:49;13.53;;;3.43;;
8791;SDS011;4432;50.890;4.744;2023-04-25T07:08:15;9.60;;;2.87;;
8791;SDS011;4432;50.890;4.744;2023-04-25T07:10:42;10.73;;;3.27;;
8791;SDS011;4432;50.890;4.744;2023-04-25T07:13:08;8.77;;;2.97;;
8791;SDS011;4432;50.890;4.744;2023-04-25T07:15:34;9.17;;;2.57;;
8791;SDS011;4432;50.890;4.744;2023-04-25T07:18:02;3.50;;;2.47;;
8791;SDS011;4432;50.890;4.744;2023-04-25T07:20:28;9.47;;;3.33;;
8791;SDS011;4432;50.890;4.744;2023-04-25T07:22:55;8.57;;;2.73;;
8791;SDS011;4432;50.890;4.744;2023-04-25T07:25:22;9.23;;;2.80;;
8791;SDS011;4432;50.890;4.744;2023-04-25T07:27:48;10.33;;;3.33;;
8791;SDS011;4432;50.890;4.744;2023-04-25T07:30:14;4.47;;;2.40;;
8791;SDS011;4432;50.890;4.744;2023-04-25T07:32:40;5.07;;;2.93;;
8791;SDS011;4432;50.890;4.744;2023-04-25T07:35:05;9.30;;;2.00;;
8791;SDS011;4432;50.890;4.744;2023-04-25T07:37:32;7.30;;;2.53;;
8791;SDS011;4432;50.890;4.744;2023-04-25T07:40:02;8.33;;;2.57;;
8791;SDS011;4432;50.890;4.744;2023-04-25T07:42:29;10.03;;;2.20;;
8791;SDS011;4432;50.890;4.744;2023-04-25T07:44:55;8.23;;;2.23;;
8791;SDS011;4432;50.890;4.744;2023-04-25T07:47:21;7.23;;;2.40;;
8791;SDS011;4432;50.890;4.744;2023-04-25T07:49:47;7.90;;;2.73;;
8791;SDS011;4432;50.890;4.744;2023-04-25T07:52:13;4.63;;;1.90;;
8791;SDS011;4432;50.890;4.744;2023-04-25T07:54:38;7.23;;;2.37;;
8791;SDS011;4432;50.890;4.744;2023-04-25T07:57:04;4.93;;;1.93;;
8791;SDS011;4432;50.890;4.744;2023-04-25T07:59:31;6.23;;;2.00;;
8791;SDS011;4432;50.890;4.744;2023-04-25T08:01:57;7.77;;;2.10;;
8791;SDS011;4432;50.890;4.744;2023-04-25T08:04:23;3.90;;;1.77;;
8791;SDS011;4432;50.890;4.744;2023-04-25T08:06:50;12.77;;;2.30;;
8791;SDS011;4432;50.890;4.744;2023-04-25T08:09:17;4.57;;;2.07;;
8791;SDS011;4432;50.890;4.744;2023-04-25T08:11:43;6.60;;;2.40;;
8791;SDS011;4432;50.890;4.744;2023-04-25T08:14:09;8.43;;;2.63;;
8791;SDS011;4432;50.890;4.744;2023-04-25T08:16:36;8.57;;;1.97;;
8791;SDS011;4432;50.890;4.744;2023-04-25T08:19:02;10.67;;;2.20;;
8791;SDS011;4432;50.890;4.744;2023-04-25T08:21:28;4.63;;;2.23;;
8791;SDS011;4432;50.890;4.744;2023-04-25T08:23:53;8.83;;;2.23;;
8791;SDS011;4432;50.890;4.744;2023-04-25T08:26:19;7.80;;;2.33;;
8791;SDS011;4432;50.890;4.744;2023-04-25T08:28:45;8.07;;;2.03;;
8791;SDS011;4432;50.890;4.744;2023-04-25T08:31:11;5.67;;;2.10;;
8791;SDS011;4432;50.890;4.744;2023-04-25T08:33:37;6.10;;;1.70;;
8791;SDS011;4432;50.890;4.744;2023-04-25T08:36:03;5.13;;;1.90;;
8791;SDS011;4432;50.890;4.744;2023-04-25T08:38:29;1.70;;;1.20;;
8791;SDS011;4432;50.890;4.744;2023-04-25T08:40:55;12.17;;;2.47;;
8791;SDS011;4432;50.890;4.744;2023-04-25T08:43:24;2.33;;;1.60;;
8791;SDS011;4432;50.890;4.744;2023-04-25T08:45:50;9.57;;;2.07;;
8791;SDS011;4432;50.890;4.744;2023-04-25T08:48:21;5.37;;;1.60;;
8791;SDS011;4432;50.890;4.744;2023-04-25T08:50:50;6.40;;;2.00;;
8791;SDS011;4432;50.890;4.744;2023-04-25T08:53:18;3.40;;;1.70;;
8791;SDS011;4432;50.890;4.744;2023-04-25T08:55:55;5.43;;;1.97;;
8791;SDS011;4432;50.890;4.744;2023-04-25T08:58:22;2.87;;;1.73;;
8791;SDS011;4432;50.890;4.744;2023-04-25T09:00:48;4.03;;;1.60;;
8791;SDS011;4432;50.890;4.744;2023-04-25T09:03:15;5.73;;;2.17;;
8791;SDS011;4432;50.890;4.744;2023-04-25T09:05:41;7.47;;;1.73;;
8791;SDS011;4432;50.890;4.744;2023-04-25T09:08:07;5.73;;;1.77;;
8791;SDS011;4432;50.890;4.744;2023-04-25T09:10:33;4.93;;;1.97;;
8791;SDS011;4432;50.890;4.744;2023-04-25T09:13:03;8.70;;;2.13;;
8791;SDS011;4432;50.890;4.744;2023-04-25T09:15:31;4.07;;;1.70;;
8791;SDS011;4432;50.890;4.744;2023-04-25T09:17:58;3.13;;;1.23;;
8791;SDS011;4432;50.890;4.744;2023-04-25T09:20:25;8.37;;;2.13;;
8791;SDS011;4432;50.890;4.744;2023-04-25T09:23:03;6.90;;;2.07;;
8791;SDS011;4432;50.890;4.744;2023-04-25T09:25:35;6.27;;;1.70;;
8791;SDS011;4432;50.890;4.744;2023-04-25T09:28:05;7.17;;;1.80;;
8791;SDS011;4432;50.890;4.744;2023-04-25T09:30:32;3.37;;;1.47;;
8791;SDS011;4432;50.890;4.744;2023-04-25T09:33:06;3.17;;;1.83;;
8791;SDS011;4432;50.890;4.744;2023-04-25T09:35:36;4.63;;;1.63;;
8791;SDS011;4432;50.890;4.744;2023-04-25T09:38:10;5.20;;;1.73;;
8791;SDS011;4432;50.890;4.744;2023-04-25T09:40:44;3.60;;;1.50;;
8791;SDS011;4432;50.890;4.744;2023-04-25T09:43:20;2.07;;;1.63;;
8791;SDS011;4432;50.890;4.744;2023-04-25T09:45:47;5.63;;;1.40;;
8791;SDS011;4432;50.890;4.744;2023-04-25T09:48:18;8.60;;;1.40;;
8791;SDS011;4432;50.890;4.744;2023-04-25T09:50:45;5.77;;;1.40;;
8791;SDS011;4432;50.890;4.744;2023-04-25T09:53:28;5.57;;;1.60;;
8791;SDS011;4432;50.890;4.744;2023-04-25T09:55:54;10.20;;;1.40;;
8791;SDS011;4432;50.890;4.744;2023-04-25T09:58:21;6.93;;;1.50;;
8791;SDS011;4432;50.890;4.744;2023-04-25T10:00:52;4.73;;;1.50;;
8791;SDS011;4432;50.890;4.744;2023-04-25T10:03:20;5.80;;;1.57;;
8791;SDS011;4432;50.890;4.744;2023-04-25T10:05:48;3.80;;;1.30;;
8791;SDS011;4432;50.890;4.744;2023-04-25T10:08:14;0.97;;;0.90;;
8791;SDS011;4432;50.890;4.744;2023-04-25T10:10:41;1.57;;;0.97;;
8791;SDS011;4432;50.890;4.744;2023-04-25T10:13:07;5.50;;;1.57;;
8791;SDS011;4432;50.890;4.744;2023-04-25T10:15:34;3.83;;;1.10;;
8791;SDS011;4432;50.890;4.744;2023-04-25T10:18:03;1.30;;;1.13;;
8791;SDS011;4432;50.890;4.744;2023-04-25T10:20:31;4.07;;;1.37;;
8791;SDS011;4432;50.890;4.744;2023-04-25T10:23:03;2.43;;;0.97;;
8791;SDS011;4432;50.890;4.744;2023-04-25T10:25:36;3.30;;;0.93;;
8791;SDS011;4432;50.890;4.744;2023-04-25T10:28:03;5.70;;;1.27;;
8791;SDS011;4432;50.890;4.744;2023-04-25T10:30:29;2.03;;;1.27;;
8791;SDS011;4432;50.890;4.744;2023-04-25T10:32:55;0.67;;;0.67;;
8791;SDS011;4432;50.890;4.744;2023-04-25T10:35:25;1.30;;;0.80;;
8791;SDS011;4432;50.890;4.744;2023-04-25T10:37:56;4.13;;;1.20;;
8791;SDS011;4432;50.890;4.744;2023-04-25T10:40:22;1.20;;;1.10;;
8791;SDS011;4432;50.890;4.744;2023-04-25T10:42:48;1.60;;;1.10;;
8791;SDS011;4432;50.890;4.744;2023-04-25T10:45:16;2.10;;;1.10;;
8791;SDS011;4432;50.890;4.744;2023-04-25T10:47:45;1.00;;;0.97;;
8791;SDS011;4432;50.890;4.744;2023-04-25T10:50:11;2.80;;;1.10;;
8791;SDS011;4432;50.890;4.744;2023-04-25T10:52:40;2.10;;;1.00;;
8791;SDS011;4432;50.890;4.744;2023-04-25T10:55:06;1.03;;;0.90;;
8791;SDS011;4432;50.890;4.744;2023-04-25T10:57:36;2.07;;;1.10;;
8791;SDS011;4432;50.890;4.744;2023-04-25T11:00:15;1.70;;;0.90;;
8791;SDS011;4432;50.890;4.744;2023-04-25T11:05:10;1.07;;;0.90;;
8791;SDS011;4432;50.890;4.744;2023-04-25T11:07:48;3.20;;;1.10;;
8791;SDS011;4432;50.890;4.744;2023-04-25T11:10:16;2.10;;;0.90;;
8791;SDS011;4432;50.890;4.744;2023-04-25T11:12:43;2.20;;;1.30;;
8791;SDS011;4432;50.890;4.744;2023-04-25T11:15:11;1.83;;;0.80;;
8791;SDS011;4432;50.890;4.744;2023-04-25T11:17:36;2.83;;;1.00;;
8791;SDS011;4432;50.890;4.744;2023-04-25T11:20:05;4.23;;;1.30;;
8791;SDS011;4432;50.890;4.744;2023-04-25T11:22:34;5.80;;;1.10;;
8791;SDS011;4432;50.890;4.744;2023-04-25T11:25:04;2.70;;;1.30;;
8791;SDS011;4432;50.890;4.744;2023-04-25T11:27:30;3.40;;;1.13;;
8791;SDS011;4432;50.890;4.744;2023-04-25T11:29:56;3.07;;;1.60;;
8791;SDS011;4432;50.890;4.744;2023-04-25T11:32:22;2.00;;;1.07;;
8791;SDS011;4432;50.890;4.744;2023-04-25T11:34:48;2.17;;;1.43;;
8791;SDS011;4432;50.890;4.744;2023-04-25T11:37:14;2.03;;;1.13;;
8791;SDS011;4432;50.890;4.744;2023-04-25T11:39:46;2.57;;;1.13;;
8791;SDS011;4432;50.890;4.744;2023-04-25T11:42:12;1.70;;;1.40;;
8791;SDS011;4432;50.890;4.744;2023-04-25T11:44:39;0.83;;;0.83;;
8791;SDS011;4432;50.890;4.744;2023-04-25T11:47:05;2.43;;;1.10;;
8791;SDS011;4432;50.890;4.744;2023-04-25T11:49:31;2.80;;;1.60;;
8791;SDS011;4432;50.890;4.744;2023-04-25T11:51:57;3.07;;;1.40;;
8791;SDS011;4432;50.890;4.744;2023-04-25T11:54:23;0.87;;;0.87;;
8791;SDS011;4432;50.890;4.744;2023-04-25T11:56:48;2.93;;;1.40;;
8791;SDS011;4432;50.890;4.744;2023-04-25T11:59:14;1.80;;;1.23;;
8791;SDS011;4432;50.890;4.744;2023-04-25T12:01:47;3.23;;;1.43;;
8791;SDS011;4432;50.890;4.744;2023-04-25T12:04:18;5.97;;;1.40;;
8791;SDS011;4432;50.890;4.744;2023-04-25T12:06:46;2.67;;;1.10;;
8791;SDS011;4432;50.890;4.744;2023-04-25T12:09:13;1.40;;;1.30;;
8791;SDS011;4432;50.890;4.744;2023-04-25T12:11:44;1.10;;;1.00;;
8791;SDS011;4432;50.890;4.744;2023-04-25T12:14:11;2.67;;;1.10;;
8791;SDS011;4432;50.890;4.744;2023-04-25T12:16:45;5.67;;;1.20;;
8791;SDS011;4432;50.890;4.744;2023-04-25T12:19:15;2.33;;;1.00;;
8791;SDS011;4432;50.890;4.744;2023-04-25T12:21:42;2.17;;;1.13;;
8791;SDS011;4432;50.890;4.744;2023-04-25T12:24:13;2.20;;;0.80;;
8791;SDS011;4432;50.890;4.744;2023-04-25T12:26:47;2.97;;;1.03;;
8791;SDS011;4432;50.890;4.744;2023-04-25T12:29:49;2.90;;;1.17;;
8791;SDS011;4432;50.890;4.744;2023-04-25T12:32:19;1.33;;;1.30;;
8791;SDS011;4432;50.890;4.744;2023-04-25T12:34:45;8.90;;;1.50;;
8791;SDS011;4432;50.890;4.744;2023-04-25T12:37:11;2.33;;;1.70;;
8791;SDS011;4432;50.890;4.744;2023-04-25T12:39:37;1.97;;;1.50;;
8791;SDS011;4432;50.890;4.744;2023-04-25T12:42:03;2.47;;;1.53;;
8791;SDS011;4432;50.890;4.744;2023-04-25T12:44:28;6.93;;;1.60;;
8791;SDS011;4432;50.890;4.744;2023-04-25T12:46:54;2.00;;;1.33;;
8791;SDS011;4432;50.890;4.744;2023-04-25T12:49:20;1.27;;;1.17;;
8791;SDS011;4432;50.890;4.744;2023-04-25T12:51:46;1.50;;;1.10;;
8791;SDS011;4432;50.890;4.744;2023-04-25T12:54:12;1.57;;;1.20;;
8791;SDS011;4432;50.890;4.744;2023-04-25T12:56:39;2.00;;;1.63;;
8791;SDS011;4432;50.890;4.744;2023-04-25T12:59:06;2.77;;;1.30;;
8791;SDS011;4432;50.890;4.744;2023-04-25T13:01:31;1.40;;;1.30;;
8791;SDS011;4432;50.890;4.744;2023-04-25T13:03:57;3.80;;;1.00;;
8791;SDS011;4432;50.890;4.744;2023-04-25T13:06:23;0.87;;;0.83;;
8791;SDS011;4432;50.890;4.744;2023-04-25T13:08:49;2.30;;;1.00;;
8791;SDS011;4432;50.890;4.744;2023-04-25T13:11:15;1.20;;;0.90;;
8791;SDS011;4432;50.890;4.744;2023-04-25T13:13:41;2.10;;;0.80;;
8791;SDS011;4432;50.890;4.744;2023-04-25T13:16:07;1.13;;;0.73;;
8791;SDS011;4432;50.890;4.744;2023-04-25T13:18:33;1.73;;;1.00;;
8791;SDS011;4432;50.890;4.744;2023-04-25T13:20:59;3.67;;;1.00;;
8791;SDS011;4432;50.890;4.744;2023-04-25T13:23:25;1.60;;;1.17;;
8791;SDS011;4432;50.890;4.744;2023-04-25T13:25:52;3.10;;;0.77;;
8791;SDS011;4432;50.890;4.744;2023-04-25T13:28:20;1.43;;;1.00;;
8791;SDS011;4432;50.890;4.744;2023-04-25T13:30:46;0.90;;;0.90;;
8791;SDS011;4432;50.890;4.744;2023-04-25T13:33:13;3.80;;;1.40;;
8791;SDS011;4432;50.890;4.744;2023-04-25T13:35:40;6.53;;;1.00;;
8791;SDS011;4432;50.890;4.744;2023-04-25T13:38:06;1.90;;;1.07;;
8791;SDS011;4432;50.890;4.744;2023-04-25T13:40:32;3.70;;;0.83;;
8791;SDS011;4432;50.890;4.744;2023-04-25T13:42:58;0.87;;;0.77;;
8791;SDS011;4432;50.890;4.744;2023-04-25T13:45:24;2.73;;;0.77;;
8791;SDS011;4432;50.890;4.744;2023-04-25T13:47:50;0.93;;;0.93;;
8791;SDS011;4432;50.890;4.744;2023-04-25T13:50:16;3.90;;;1.10;;
8791;SDS011;4432;50.890;4.744;2023-04-25T13:52:42;2.03;;;1.30;;
8791;SDS011;4432;50.890;4.744;2023-04-25T13:55:08;1.30;;;0.80;;
8791;SDS011;4432;50.890;4.744;2023-04-25T13:57:35;2.83;;;1.07;;
8791;SDS011;4432;50.890;4.744;2023-04-25T14:00:01;4.40;;;1.37;;
8791;SDS011;4432;50.890;4.744;2023-04-25T14:02:32;3.30;;;1.33;;
8791;SDS011;4432;50.890;4.744;2023-04-25T14:04:57;2.27;;;1.10;;
8791;SDS011;4432;50.890;4.744;2023-04-25T14:07:23;1.20;;;1.10;;
8791;SDS011;4432;50.890;4.744;2023-04-25T14:09:49;2.07;;;1.20;;
8791;SDS011;4432;50.890;4.744;2023-04-25T14:12:15;0.80;;;0.80;;
8791;SDS011;4432;50.890;4.744;2023-04-25T14:14:41;0.97;;;0.93;;
8791;SDS011;4432;50.890;4.744;2023-04-25T14:17:07;1.20;;;0.80;;
8791;SDS011;4432;50.890;4.744;2023-04-25T14:19:34;3.43;;;1.10;;
8791;SDS011;4432;50.890;4.744;2023-04-25T14:21:59;1.77;;;0.70;;
8791;SDS011;4432;50.890;4.744;2023-04-25T14:24:25;3.40;;;1.00;;
8791;SDS011;4432;50.890;4.744;2023-04-25T14:26:51;3.90;;;1.20;;
8791;SDS011;4432;50.890;4.744;2023-04-25T14:29:17;0.63;;;0.63;;
8791;SDS011;4432;50.890;4.744;2023-04-25T14:31:43;1.37;;;0.90;;
8791;SDS011;4432;50.890;4.744;2023-04-25T14:34:10;2.23;;;1.00;;
8791;SDS011;4432;50.890;4.744;2023-04-25T14:36:36;3.50;;;0.80;;
8791;SDS011;4432;50.890;4.744;2023-04-25T14:39:02;3.13;;;1.03;;
8791;SDS011;4432;50.890;4.744;2023-04-25T14:41:30;4.27;;;1.03;;
8791;SDS011;4432;50.890;4.744;2023-04-25T14:43:55;4.00;;;0.87;;
8791;SDS011;4432;50.890;4.744;2023-04-25T14:46:22;1.17;;;1.07;;
8791;SDS011;4432;50.890;4.744;2023-04-25T14:48:48;1.90;;;0.90;;
8791;SDS011;4432;50.890;4.744;2023-04-25T14:51:14;4.27;;;0.93;;
8791;SDS011;4432;50.890;4.744;2023-04-25T14:53:40;1.43;;;0.70;;
8791;SDS011;4432;50.890;4.744;2023-04-25T14:56:06;2.93;;;1.17;;
8791;SDS011;4432;50.890;4.744;2023-04-25T14:58:32;2.40;;;1.10;;
8791;SDS011;4432;50.890;4.744;2023-04-25T15:00:59;2.17;;;0.90;;
8791;SDS011;4432;50.890;4.744;2023-04-25T15:03:25;1.73;;;1.10;;
8791;SDS011;4432;50.890;4.744;2023-04-25T15:05:52;1.77;;;1.10;;
8791;SDS011;4432;50.890;4.744;2023-04-25T15:08:20;6.73;;;0.93;;
8791;SDS011;4432;50.890;4.744;2023-04-25T15:10:46;0.83;;;0.80;;
8791;SDS011;4432;50.890;4.744;2023-04-25T15:13:12;0.70;;;0.70;;